createdAt,value
2018-12-22T00:00:35.980Z,3.93
2018-12-22T00:03:05.213Z,3.20
2018-12-22T00:05:34.444Z,3.50
2018-12-22T00:08:03.786Z,3.57
2018-12-22T00:10:34.624Z,3.10
2018-12-22T00:13:04.046Z,1.93
2018-12-22T00:15:33.267Z,1.50
2018-12-22T00:18:02.352Z,1.50
2018-12-22T00:20:31.554Z,1.77
2018-12-22T00:23:00.627Z,0.83
2018-12-22T00:25:29.831Z,0.60
2018-12-22T00:27:58.947Z,1.00
2018-12-22T00:30:28.157Z,0.70
2018-12-22T00:32:57.573Z,0.80
2018-12-22T00:35:26.731Z,0.70
2018-12-22T00:37:55.942Z,0.50
2018-12-22T00:40:25.131Z,0.60
2018-12-22T00:42:54.332Z,0.90
2018-12-22T00:45:23.434Z,0.67
2018-12-22T00:47:52.662Z,1.03
2018-12-22T00:50:21.849Z,0.90
2018-12-22T00:52:50.907Z,1.17
2018-12-22T00:55:20.059Z,1.33
2018-12-22T00:57:49.200Z,1.63
2018-12-22T01:00:18.448Z,1.10
2018-12-22T01:02:47.660Z,0.93
2018-12-22T01:05:16.785Z,1.13
2018-12-22T01:07:45.966Z,1.17
2018-12-22T01:10:15.190Z,0.80
2018-12-22T01:12:44.308Z,1.00
2018-12-22T01:15:13.574Z,0.93
2018-12-22T01:17:42.846Z,1.00
2018-12-22T01:20:12.024Z,1.03
2018-12-22T01:22:41.285Z,0.70
2018-12-22T01:25:10.434Z,0.83
2018-12-22T01:27:39.641Z,0.97
2018-12-22T01:30:09.163Z,0.70
2018-12-22T01:32:38.389Z,1.17
2018-12-22T01:35:07.610Z,1.00
2018-12-22T01:37:36.813Z,0.80
2018-12-22T01:40:06.368Z,0.80
2018-12-22T01:42:35.618Z,1.30
2018-12-22T01:45:05.251Z,1.20
2018-12-22T01:47:34.437Z,1.10
2018-12-22T01:50:03.669Z,0.80
2018-12-22T01:52:32.884Z,0.97
2018-12-22T01:55:02.010Z,1.00
2018-12-22T01:57:31.221Z,1.10
2018-12-22T02:00:00.409Z,1.20
2018-12-22T02:02:29.610Z,1.57
2018-12-22T02:04:58.815Z,0.97
2018-12-22T02:07:27.956Z,1.20
2018-12-22T02:09:57.209Z,1.10
2018-12-22T02:12:26.381Z,1.67
2018-12-22T02:14:55.738Z,0.87
2018-12-22T02:17:24.990Z,1.20
2018-12-22T02:19:54.169Z,1.30
2018-12-22T02:22:23.255Z,1.23
2018-12-22T02:24:52.485Z,1.10
2018-12-22T02:27:21.706Z,0.90
2018-12-22T02:29:50.925Z,1.07
2018-12-22T02:32:20.080Z,1.10
2018-12-22T02:34:49.379Z,0.90
2018-12-22T02:37:18.744Z,0.80
2018-12-22T02:39:47.961Z,0.90
2018-12-22T02:42:17.082Z,0.77
2018-12-22T02:44:46.270Z,0.80
2018-12-22T02:47:15.544Z,0.70
2018-12-22T02:49:44.817Z,0.80
2018-12-22T02:52:13.972Z,0.90
2018-12-22T02:54:43.138Z,0.67
2018-12-22T02:57:12.345Z,0.70
2018-12-22T02:59:41.779Z,0.63
2018-12-22T03:02:10.966Z,0.70
2018-12-22T03:04:40.187Z,0.80
2018-12-22T03:07:09.337Z,0.60
2018-12-22T03:09:38.478Z,0.70
2018-12-22T03:12:07.878Z,1.23
2018-12-22T03:14:37.115Z,0.67
2018-12-22T03:17:06.339Z,0.70
2018-12-22T03:19:35.523Z,0.97
2018-12-22T03:22:04.755Z,0.90
2018-12-22T03:24:33.880Z,1.00
2018-12-22T03:27:03.092Z,1.20
2018-12-22T03:29:32.281Z,1.10
2018-12-22T03:32:01.541Z,1.10
2018-12-22T03:34:30.724Z,1.00
2018-12-22T03:36:59.921Z,1.00
2018-12-22T03:39:29.051Z,1.30
2018-12-22T03:41:58.499Z,1.27
2018-12-22T03:44:27.671Z,1.03
2018-12-22T03:46:56.874Z,1.20
2018-12-22T03:49:26.085Z,1.70
2018-12-22T03:51:55.246Z,1.87
2018-12-22T03:54:24.399Z,1.60
2018-12-22T03:56:53.508Z,1.70
2018-12-22T03:59:25.031Z,1.77
2018-12-22T04:01:53.873Z,1.80
2018-12-22T04:04:23.000Z,2.00
2018-12-22T04:06:52.164Z,2.53
2018-12-22T04:09:21.435Z,2.13
2018-12-22T04:11:50.654Z,2.17
2018-12-22T04:14:19.864Z,2.13
2018-12-22T04:16:49.096Z,1.90
2018-12-22T04:19:18.290Z,2.90
2018-12-22T04:21:47.465Z,2.60
2018-12-22T04:24:16.710Z,2.50
2018-12-22T04:26:45.800Z,2.00
2018-12-22T04:29:14.990Z,2.13
2018-12-22T04:31:44.219Z,2.17
2018-12-22T04:34:13.363Z,2.00
2018-12-22T04:36:42.554Z,1.90
2018-12-22T04:39:11.754Z,1.60
2018-12-22T04:41:40.986Z,1.50
2018-12-22T04:44:10.161Z,1.83
2018-12-22T04:46:39.353Z,1.97
2018-12-22T04:49:08.485Z,1.30
2018-12-22T04:51:37.729Z,1.60
2018-12-22T04:56:44.773Z,1.30
2018-12-22T04:59:14.051Z,1.50
2018-12-22T05:01:43.264Z,1.23
2018-12-22T05:04:12.420Z,0.90
2018-12-22T05:06:41.677Z,1.53
2018-12-22T05:09:10.825Z,1.20
2018-12-22T05:11:40.072Z,1.37
2018-12-22T05:14:09.243Z,1.10
2018-12-22T05:16:38.439Z,1.40
2018-12-22T05:19:07.629Z,1.67
2018-12-22T05:21:36.849Z,2.07
2018-12-22T05:24:06.095Z,1.10
2018-12-22T05:26:35.325Z,1.50
2018-12-22T05:29:04.592Z,1.50
2018-12-22T05:31:33.798Z,2.30
2018-12-22T05:34:02.992Z,1.50
2018-12-22T05:36:32.141Z,1.40
2018-12-22T05:39:01.269Z,1.77
2018-12-22T05:41:30.541Z,1.50
2018-12-22T05:43:59.872Z,1.80
2018-12-22T05:46:29.004Z,1.77
2018-12-22T05:48:58.087Z,1.40
2018-12-22T05:51:27.301Z,1.43
2018-12-22T05:53:56.535Z,1.67
2018-12-22T05:56:25.758Z,1.40
2018-12-22T05:58:54.964Z,1.40
2018-12-22T06:01:24.056Z,1.20
2018-12-22T06:03:53.287Z,1.20
2018-12-22T06:06:22.534Z,1.23
2018-12-22T06:08:51.811Z,1.10
2018-12-22T06:11:21.061Z,1.37
2018-12-22T06:13:50.168Z,1.63
2018-12-22T06:16:19.412Z,1.03
2018-12-22T06:18:48.579Z,1.13
2018-12-22T06:21:17.899Z,0.87
2018-12-22T06:23:47.028Z,1.00
2018-12-22T06:26:16.172Z,1.10
2018-12-22T06:28:45.389Z,0.60
2018-12-22T06:31:14.521Z,1.07
2018-12-22T06:33:43.589Z,0.77
2018-12-22T06:36:12.747Z,0.77
2018-12-22T06:38:41.880Z,0.80
2018-12-22T06:41:11.141Z,0.53
2018-12-22T06:43:40.447Z,0.80
2018-12-22T06:46:09.631Z,1.00
2018-12-22T06:48:38.920Z,0.77
2018-12-22T06:51:08.146Z,0.90
2018-12-22T06:53:37.229Z,0.77
2018-12-22T06:56:06.438Z,1.10
2018-12-22T06:58:35.607Z,1.20
2018-12-22T07:01:04.950Z,0.67
2018-12-22T07:03:34.169Z,0.73
2018-12-22T07:06:03.364Z,1.10
2018-12-22T07:08:32.497Z,0.73
2018-12-22T07:11:01.629Z,0.93
2018-12-22T07:13:30.851Z,0.80
2018-12-22T07:16:00.129Z,0.90
2018-12-22T07:18:29.337Z,0.93
2018-12-22T07:20:58.528Z,0.80
2018-12-22T07:23:27.607Z,0.67
2018-12-22T07:25:56.953Z,1.23
2018-12-22T07:28:26.147Z,0.93
2018-12-22T07:30:55.387Z,1.00
2018-12-22T07:33:24.580Z,1.10
2018-12-22T07:35:53.740Z,1.00
2018-12-22T07:38:22.924Z,1.20
2018-12-22T07:40:52.061Z,1.10
2018-12-22T07:43:21.218Z,1.20
2018-12-22T07:45:50.380Z,1.83
2018-12-22T07:48:19.566Z,2.20
2018-12-22T07:50:48.733Z,1.80
2018-12-22T07:53:17.902Z,2.60
2018-12-22T07:55:47.100Z,1.43
2018-12-22T07:58:16.340Z,2.10
2018-12-22T08:00:45.519Z,2.37
2018-12-22T08:03:14.737Z,1.83
2018-12-22T08:05:43.985Z,1.30
2018-12-22T08:08:13.195Z,2.23
2018-12-22T08:10:42.425Z,2.30
2018-12-22T08:13:11.648Z,2.00
2018-12-22T08:15:42.966Z,1.50
2018-12-22T08:18:11.952Z,1.90
2018-12-22T08:20:41.181Z,1.20
2018-12-22T08:23:10.313Z,1.87
2018-12-22T08:25:39.578Z,1.30
2018-12-22T08:28:08.713Z,1.10
2018-12-22T08:30:43.524Z,1.30
2018-12-22T08:33:09.168Z,1.27
2018-12-22T08:35:38.363Z,1.50
2018-12-22T08:38:07.611Z,1.40
2018-12-22T08:40:36.899Z,1.33
2018-12-22T08:43:06.157Z,1.50
2018-12-22T08:45:35.626Z,1.63
2018-12-22T08:48:04.892Z,1.63
2018-12-22T08:50:34.068Z,1.20
2018-12-22T08:53:03.224Z,1.00
2018-12-22T08:55:32.361Z,1.30
2018-12-22T08:58:01.607Z,1.50
2018-12-22T09:00:31.233Z,1.37
2018-12-22T09:03:00.462Z,0.83
2018-12-22T09:05:29.603Z,1.20
2018-12-22T09:07:58.802Z,1.43
2018-12-22T09:10:27.935Z,1.30
2018-12-22T09:12:57.119Z,1.10
2018-12-22T09:15:26.358Z,1.20
2018-12-22T09:17:55.653Z,1.50
2018-12-22T09:20:24.834Z,1.50
2018-12-22T09:22:54.040Z,1.00
2018-12-22T09:25:23.248Z,1.07
2018-12-22T09:27:52.446Z,1.10
2018-12-22T09:30:21.650Z,0.90
2018-12-22T09:32:50.902Z,2.23
2018-12-22T09:35:20.097Z,1.90
2018-12-22T09:37:49.297Z,1.87
2018-12-22T09:40:18.571Z,1.87
2018-12-22T09:42:47.966Z,1.50
2018-12-22T09:45:17.300Z,1.50
2018-12-22T09:47:46.573Z,1.27
2018-12-22T09:50:15.870Z,1.00
2018-12-22T09:52:45.233Z,1.83
2018-12-22T09:55:14.592Z,1.70
2018-12-22T09:57:43.945Z,1.40
2018-12-22T10:00:14.341Z,1.87
2018-12-22T10:02:43.590Z,1.40
2018-12-22T10:05:12.874Z,1.57
2018-12-22T10:07:42.177Z,1.87
2018-12-22T10:10:17.511Z,1.83
2018-12-22T10:12:46.954Z,1.63
2018-12-22T10:15:16.257Z,1.40
2018-12-22T10:17:45.541Z,1.63
2018-12-22T10:20:14.897Z,1.40
2018-12-22T10:22:44.145Z,1.80
2018-12-22T10:25:13.399Z,2.53
2018-12-22T10:27:42.900Z,2.13
2018-12-22T10:30:16.455Z,2.23
2018-12-22T10:32:45.681Z,2.27
2018-12-22T10:35:29.021Z,2.50
2018-12-22T10:37:58.357Z,2.80
2018-12-22T10:40:27.515Z,2.60
2018-12-22T10:42:56.639Z,2.53
2018-12-22T10:45:25.829Z,2.90
2018-12-22T10:47:54.992Z,3.00
2018-12-22T10:50:25.004Z,2.30
2018-12-22T10:52:54.305Z,1.80
2018-12-22T10:55:23.551Z,2.20
2018-12-22T10:57:52.845Z,1.53
2018-12-22T11:00:22.075Z,1.10
2018-12-22T11:02:51.334Z,1.67
2018-12-22T11:05:20.455Z,1.57
2018-12-22T11:07:50.000Z,1.10
2018-12-22T11:10:24.058Z,1.33
2018-12-22T11:12:57.558Z,1.57
2018-12-22T11:15:26.762Z,1.50
2018-12-22T11:17:55.993Z,1.50
2018-12-22T11:20:25.189Z,1.50
2018-12-22T11:22:54.408Z,1.67
2018-12-22T11:25:26.137Z,1.17
2018-12-22T11:27:55.440Z,1.40
2018-12-22T11:30:35.367Z,1.17
2018-12-22T11:33:04.673Z,1.50
2018-12-22T11:35:33.744Z,1.70
2018-12-22T11:38:03.040Z,1.33
2018-12-22T11:40:32.217Z,1.50
2018-12-22T11:43:01.393Z,1.40
2018-12-22T11:45:30.629Z,1.93
2018-12-22T11:48:13.448Z,1.73
2018-12-22T11:50:42.596Z,1.33
2018-12-22T11:53:11.848Z,1.83
2018-12-22T11:55:41.040Z,1.20
2018-12-22T11:58:10.474Z,0.97
2018-12-22T12:00:39.661Z,1.20
2018-12-22T12:03:08.788Z,1.20
2018-12-22T12:05:37.968Z,1.07
2018-12-22T12:08:07.059Z,1.07
2018-12-22T12:10:36.280Z,1.00
2018-12-22T12:13:05.517Z,1.30
2018-12-22T12:15:48.438Z,0.97
2018-12-22T12:18:31.956Z,1.17
2018-12-22T12:21:01.175Z,1.20
2018-12-22T12:23:30.407Z,1.20
2018-12-22T12:25:59.633Z,1.23
2018-12-22T12:28:29.052Z,1.47
2018-12-22T12:30:58.280Z,1.13
2018-12-22T12:33:27.500Z,1.27
2018-12-22T12:35:56.695Z,2.07
2018-12-22T12:38:25.844Z,1.43
2018-12-22T12:40:55.079Z,1.70
2018-12-22T12:43:24.280Z,2.10
2018-12-22T12:45:53.539Z,2.43
2018-12-22T12:48:25.468Z,2.20
2018-12-22T12:50:54.799Z,2.20
2018-12-22T12:53:29.579Z,2.07
2018-12-22T12:55:58.782Z,2.47
2018-12-22T12:58:27.933Z,2.10
2018-12-22T13:00:57.133Z,2.27
2018-12-22T13:03:26.391Z,2.30
2018-12-22T13:05:55.627Z,3.00
2018-12-22T13:08:24.863Z,2.33
2018-12-22T13:10:54.069Z,2.63
2018-12-22T13:14:01.299Z,2.77
2018-12-22T13:16:31.974Z,3.00
2018-12-22T13:19:01.224Z,2.77
2018-12-22T13:21:30.418Z,3.20
2018-12-22T13:23:59.517Z,3.40
2018-12-22T13:26:36.576Z,2.60
2018-12-22T13:28:59.964Z,2.93
2018-12-22T13:31:29.947Z,2.77
2018-12-22T13:33:59.317Z,2.70
2018-12-22T13:36:34.544Z,2.33
2018-12-22T13:39:22.213Z,2.50
2018-12-22T13:41:51.404Z,2.90
2018-12-22T13:44:20.614Z,3.67
2018-12-22T13:46:49.790Z,3.47
2018-12-22T13:49:18.976Z,3.20
2018-12-22T13:51:48.273Z,2.60
2018-12-22T13:54:22.356Z,2.60
2018-12-22T13:56:51.508Z,3.30
2018-12-22T13:59:20.612Z,3.40
2018-12-22T14:01:55.271Z,3.80
2018-12-22T14:04:24.431Z,3.80
2018-12-22T14:06:53.595Z,3.87
2018-12-22T14:09:22.808Z,3.67
2018-12-22T14:11:51.940Z,3.80
2018-12-22T14:14:31.019Z,5.47
2018-12-22T14:17:21.380Z,3.20
2018-12-22T14:20:00.164Z,3.00
2018-12-22T14:22:31.783Z,2.67
2018-12-22T14:25:02.040Z,2.80
2018-12-22T14:27:32.429Z,3.00
2018-12-22T14:30:01.580Z,2.50
2018-12-22T14:32:30.737Z,3.20
2018-12-22T14:35:11.441Z,2.93
2018-12-22T14:37:40.655Z,3.00
2018-12-22T14:40:11.394Z,2.53
2018-12-22T14:42:40.653Z,2.43
2018-12-22T14:45:12.212Z,1.73
2018-12-22T14:47:41.401Z,2.90
2018-12-22T14:50:11.904Z,2.33
2018-12-22T14:52:41.213Z,1.93
2018-12-22T14:55:10.802Z,2.13
2018-12-22T14:57:50.766Z,1.83
2018-12-22T15:00:19.951Z,2.30
2018-12-22T15:02:49.205Z,2.10
2018-12-22T15:05:18.605Z,2.03
2018-12-22T15:07:48.211Z,1.97
2018-12-22T15:10:17.484Z,1.50
2018-12-22T15:12:47.803Z,1.10
2018-12-22T15:15:16.976Z,1.37
2018-12-22T15:17:46.260Z,1.30
2018-12-22T15:20:18.838Z,1.50
2018-12-22T15:22:48.018Z,1.10
2018-12-22T15:25:17.236Z,1.30
2018-12-22T15:27:46.399Z,0.97
2018-12-22T15:30:15.815Z,1.30
2018-12-22T15:32:54.139Z,1.27
2018-12-22T15:35:16.179Z,1.67
2018-12-22T15:37:45.425Z,1.90
2018-12-22T15:40:14.637Z,1.60
2018-12-22T15:42:43.867Z,1.20
2018-12-22T15:45:14.720Z,1.40
2018-12-22T15:47:44.700Z,1.23
2018-12-22T15:50:17.634Z,1.00
2018-12-22T15:52:46.823Z,1.10
2018-12-22T15:55:16.035Z,0.97
2018-12-22T15:57:45.270Z,0.70
2018-12-22T16:00:14.590Z,0.70
2018-12-22T16:02:43.798Z,0.90
2018-12-22T16:05:12.992Z,0.80
2018-12-22T16:07:42.330Z,1.10
2018-12-22T16:10:13.799Z,0.90
2018-12-22T16:12:43.049Z,1.00
2018-12-22T16:15:15.882Z,0.60
2018-12-22T16:17:45.121Z,1.03
2018-12-22T16:20:14.510Z,0.87
2018-12-22T16:22:49.757Z,0.90
2018-12-22T16:25:19.031Z,0.83
2018-12-22T16:27:48.536Z,0.80
2018-12-22T16:30:24.430Z,0.90
2018-12-22T16:33:01.441Z,1.00
2018-12-22T16:35:24.929Z,0.93
2018-12-22T16:37:54.170Z,1.20
2018-12-22T16:40:23.406Z,1.47
2018-12-22T16:42:52.808Z,1.10
2018-12-22T16:45:22.066Z,1.03
2018-12-22T16:47:51.269Z,0.80
2018-12-22T16:50:20.686Z,1.07
2018-12-22T16:52:49.864Z,1.13
2018-12-22T16:55:19.066Z,1.47
2018-12-22T16:58:00.025Z,1.30
2018-12-22T17:00:32.156Z,1.73
2018-12-22T17:03:11.046Z,1.53
2018-12-22T17:05:38.487Z,2.13
2018-12-22T17:08:07.712Z,1.30
2018-12-22T17:10:47.577Z,2.60
2018-12-22T17:13:20.340Z,2.23
2018-12-22T17:15:58.199Z,2.10
2018-12-22T17:18:28.479Z,2.67
2018-12-22T17:21:05.597Z,2.40
2018-12-22T17:23:46.148Z,2.10
2018-12-22T17:26:15.397Z,1.83
2018-12-22T17:28:44.666Z,2.40
2018-12-22T17:31:13.948Z,2.40
2018-12-22T17:33:43.164Z,2.40
2018-12-22T17:36:12.439Z,2.50
2018-12-22T17:38:41.705Z,2.53
2018-12-22T17:41:10.923Z,2.40
2018-12-22T17:43:41.981Z,2.97
2018-12-22T17:46:11.305Z,3.20
2018-12-22T17:48:40.517Z,3.00
2018-12-22T17:51:09.704Z,2.30
2018-12-22T17:53:38.920Z,2.17
2018-12-22T17:56:08.091Z,3.20
2018-12-22T17:58:37.213Z,3.03
2018-12-22T18:01:06.443Z,2.33
2018-12-22T18:03:38.212Z,2.97
2018-12-22T18:06:07.535Z,3.20
2018-12-22T18:08:36.752Z,3.20
2018-12-22T18:11:06.035Z,3.07
2018-12-22T18:13:35.160Z,3.70
2018-12-22T18:16:04.337Z,3.93
2018-12-22T18:18:33.856Z,4.37
2018-12-22T18:21:03.168Z,3.90
2018-12-22T18:23:32.333Z,5.30
2018-12-22T18:26:01.540Z,5.30
2018-12-22T18:28:30.785Z,4.60
2018-12-22T18:30:59.955Z,3.40
2018-12-22T18:33:35.916Z,3.50
2018-12-22T18:36:01.460Z,3.30
2018-12-22T18:38:30.644Z,3.10
2018-12-22T18:40:59.847Z,3.90
2018-12-22T18:43:29.361Z,3.27
2018-12-22T18:45:58.851Z,3.40
2018-12-22T18:48:27.968Z,3.10
2018-12-22T18:50:57.124Z,3.73
2018-12-22T18:53:26.951Z,3.70
2018-12-22T18:55:56.168Z,4.20
2018-12-22T18:58:25.362Z,3.83
2018-12-22T19:00:54.669Z,4.50
2018-12-22T19:03:23.898Z,4.07
2018-12-22T19:05:53.116Z,3.83
2018-12-22T19:08:22.336Z,3.80
2018-12-22T19:10:56.792Z,4.70
2018-12-22T19:13:26.127Z,3.80
2018-12-22T19:15:55.348Z,3.77
2018-12-22T19:18:24.592Z,3.70
2018-12-22T19:20:54.815Z,3.73
2018-12-22T19:23:27.012Z,3.70
2018-12-22T19:25:56.275Z,4.00
2018-12-22T19:28:25.496Z,2.93
2018-12-22T19:30:54.869Z,3.33
2018-12-22T19:33:24.170Z,3.70
2018-12-22T19:35:53.378Z,3.20
2018-12-22T19:38:22.531Z,4.07
2018-12-22T19:40:53.006Z,3.20
2018-12-22T19:43:22.227Z,2.97
2018-12-22T19:45:51.416Z,3.07
2018-12-22T19:48:20.666Z,3.20
2018-12-22T19:50:49.863Z,2.50
2018-12-22T19:53:19.161Z,2.00
2018-12-22T19:55:48.397Z,2.20
2018-12-22T19:58:17.541Z,2.50
2018-12-22T20:00:46.721Z,2.67
2018-12-22T20:03:15.801Z,3.20
2018-12-22T20:05:44.998Z,3.10
2018-12-22T20:08:14.140Z,2.83
2018-12-22T20:10:45.105Z,2.60
2018-12-22T20:13:14.384Z,2.40
2018-12-22T20:15:43.559Z,3.60
2018-12-22T20:18:12.720Z,3.37
2018-12-22T20:20:41.922Z,8.13
2018-12-22T20:23:11.122Z,2.27
2018-12-22T20:25:40.254Z,4.03
2018-12-22T20:28:09.473Z,5.67
2018-12-22T20:30:38.643Z,2.73
2018-12-22T20:33:07.728Z,2.70
2018-12-22T20:35:36.984Z,2.30
2018-12-22T20:38:06.172Z,2.60
2018-12-22T20:40:35.413Z,2.10
2018-12-22T20:43:04.657Z,2.70
2018-12-22T20:45:33.940Z,3.33
2018-12-22T20:48:03.129Z,3.30
2018-12-22T20:50:32.316Z,3.00
2018-12-22T20:53:01.529Z,3.27
2018-12-22T20:55:30.807Z,4.90
2018-12-22T20:57:59.993Z,3.60
2018-12-22T21:00:29.213Z,3.63
2018-12-22T21:02:58.443Z,3.83
2018-12-22T21:05:31.297Z,4.00
2018-12-22T21:08:00.490Z,3.77
2018-12-22T21:10:29.759Z,4.03
2018-12-22T21:12:58.882Z,3.83
2018-12-22T21:15:28.268Z,3.80
2018-12-22T21:17:57.472Z,4.17
2018-12-22T21:20:26.628Z,4.20
2018-12-22T21:22:55.817Z,3.83
2018-12-22T21:25:25.021Z,4.20
2018-12-22T21:27:54.240Z,4.00
2018-12-22T21:30:23.432Z,4.57
2018-12-22T21:32:52.598Z,4.90
2018-12-22T21:35:21.791Z,5.30
2018-12-22T21:37:50.893Z,6.40
2018-12-22T21:40:20.095Z,5.60
2018-12-22T21:42:49.257Z,5.93
2018-12-22T21:45:18.446Z,5.50
2018-12-22T21:47:47.550Z,5.50
2018-12-22T21:50:16.807Z,4.93
2018-12-22T21:52:46.005Z,5.10
2018-12-22T21:55:15.314Z,5.83
2018-12-22T21:57:44.503Z,6.57
2018-12-22T22:00:13.691Z,5.60
2018-12-22T22:02:42.805Z,5.43
2018-12-22T22:05:12.044Z,6.80
2018-12-22T22:07:41.238Z,6.47
2018-12-22T22:10:10.439Z,7.83
2018-12-22T22:12:39.681Z,7.00
2018-12-22T22:15:09.071Z,7.10
2018-12-22T22:17:38.215Z,8.63
2018-12-22T22:20:07.588Z,8.83
2018-12-22T22:22:36.732Z,8.20
2018-12-22T22:25:05.994Z,8.87
2018-12-22T22:27:35.230Z,10.43
2018-12-22T22:30:04.764Z,10.30
2018-12-22T22:32:34.000Z,11.03
2018-12-22T22:35:03.347Z,10.33
2018-12-22T22:37:32.483Z,7.57
2018-12-22T22:40:01.630Z,3.93
2018-12-22T22:42:30.777Z,2.23
2018-12-22T22:44:59.963Z,1.57
2018-12-22T22:47:29.184Z,1.60
2018-12-22T22:49:58.361Z,1.97
2018-12-22T22:52:27.631Z,1.73
2018-12-22T22:54:56.753Z,1.60
2018-12-22T22:57:26.006Z,1.60
2018-12-22T22:59:55.207Z,1.90
2018-12-22T23:02:24.489Z,2.13
2018-12-22T23:04:54.580Z,1.63
2018-12-22T23:07:24.077Z,2.00
2018-12-22T23:09:53.330Z,1.77
2018-12-22T23:12:22.491Z,1.73
2018-12-22T23:14:51.687Z,1.90
2018-12-22T23:17:20.917Z,2.40
2018-12-22T23:19:50.062Z,3.40
2018-12-22T23:22:19.301Z,4.03
2018-12-22T23:24:48.505Z,4.07
2018-12-22T23:27:17.668Z,6.33
2018-12-22T23:29:46.829Z,6.10
2018-12-22T23:32:16.035Z,7.10
2018-12-22T23:34:45.220Z,8.10
2018-12-22T23:37:14.476Z,8.77
2018-12-22T23:39:43.604Z,8.57
2018-12-22T23:42:12.858Z,8.27
2018-12-22T23:44:41.896Z,8.63
2018-12-22T23:47:11.154Z,8.20
2018-12-22T23:49:40.296Z,7.60
2018-12-22T23:52:09.507Z,7.40
2018-12-22T23:54:38.708Z,6.57
2018-12-22T23:57:07.930Z,5.87
2018-12-22T23:59:37.097Z,4.70
